Jackpot, Nevada
Current Conditions -  °F | °C
As of 2:53 PM on Monday 20 Oct 2014 (Local Time) from KTWF Reporting Station
Clear Clear  
Wind Chill: 78°   Ceiling: Unl
Heat Index: 78°   Visibility: 10mi
Dew Point: 30°   Wind: 14mph
Humidity: 17%   Direction: 170°S
Pressure: 29.84"   Gusts: 21mph
Location:  41.98°N, 114.68°W
Report Text: KTWF 202153Z AUTO 17012G18KT 10SM CLR 26/M01 A2984 RMK AO2 SLP055 T02561011
Loading
Personal Weather Stations






























Interactive Weather Map
Tropical Storm Tracking
New forecast layout! Learn more

10-Day Weather Forecast

Advertisements
Track Severe Weather on mobile